Time,TemperatureF,DewpointF,PressureIn,WindDirection,WindDirectionDegrees,WindSpeedMPH,WindSpeedGustMPH,Humidity,HourlyPrecipIn,Conditions,Clouds,dailyrainin,SoftwareType,DateUTC
2013-04-04 00:00:00,47.9,40.0,30.27,NE,54,4.0,8.0,74,0.00,,---,0.00,VWS V14.01,2013-04-04 04:00:00,
2013-04-04 00:05:00,47.3,39.8,30.27,NE,44,6.0,7.0,75,0.00,,---,0.00,VWS V14.01,2013-04-04 04:05:00,
2013-04-04 00:10:00,46.9,39.4,30.27,NE,54,6.0,8.0,75,0.00,,---,0.00,VWS V14.01,2013-04-04 04:10:00,
2013-04-04 00:15:00,46.8,39.3,30.27,ENE,62,5.0,7.0,75,0.00,,---,0.00,VWS V14.01,2013-04-04 04:15:00,
2013-04-04 00:20:00,46.6,39.1,30.26,ENE,66,3.0,7.0,75,0.00,,---,0.00,VWS V14.01,2013-04-04 04:20:00,
2013-04-04 00:25:00,46.5,39.4,30.26,ENE,61,7.0,9.0,76,0.00,,---,0.00,VWS V14.01,2013-04-04 04:25:00,
2013-04-04 00:30:00,46.3,39.2,30.26,NE,51,5.0,9.0,76,0.00,,---,0.00,VWS V14.01,2013-04-04 04:30:00,
2013-04-04 00:35:00,46.2,39.1,30.26,NE,42,6.0,7.0,76,0.00,,---,0.00,VWS V14.01,2013-04-04 04:35:00,
2013-04-04 00:40:00,46.1,39.0,30.27,ENE,62,7.0,9.0,76,0.00,,---,0.00,VWS V14.01,2013-04-04 04:40:00,
2013-04-04 00:45:00,46.0,38.9,30.26,NE,51,5.0,10.0,76,0.00,,---,0.00,VWS V14.01,2013-04-04 04:45:00,
2013-04-04 00:50:00,46.1,39.3,30.26,ENE,60,7.0,9.0,77,0.00,,---,0.00,VWS V14.01,2013-04-04 04:50:00,
2013-04-04 00:55:00,46.1,39.3,30.26,NE,54,8.0,10.0,77,0.00,,---,0.00,VWS V14.01,2013-04-04 04:55:00,
2013-04-04 01:00:00,46.3,39.5,30.26,ENE,64,9.0,9.0,77,0.00,,---,0.00,VWS V14.01,2013-04-04 05:00:00,
2013-04-04 01:05:00,46.6,40.1,30.26,ENE,64,7.0,8.0,78,0.00,,---,0.00,VWS V14.01,2013-04-04 05:05:00,
2013-04-04 01:10:00,46.8,40.3,30.27,ENE,67,5.0,8.0,78,0.00,,---,0.00,VWS V14.01,2013-04-04 05:10:00,
2013-04-04 01:15:00,46.8,40.3,30.26,NE,55,3.0,4.0,78,0.00,,---,0.00,VWS V14.01,2013-04-04 05:15:00,
2013-04-04 01:20:00,46.8,40.3,30.26,ENE,77,5.0,7.0,78,0.00,,---,0.00,VWS V14.01,2013-04-04 05:20:00,
2013-04-04 01:25:00,46.8,40.3,30.26,ENE,74,2.0,6.0,78,0.00,,---,0.00,VWS V14.01,2013-04-04 05:25:00,
2013-04-04 01:30:00,46.8,40.3,30.26,ENE,74,2.0,3.0,78,0.00,,---,0.00,VWS V14.01,2013-04-04 05:30:00,
2013-04-04 01:35:00,46.8,40.3,30.26,East,87,3.0,6.0,78,0.00,,---,0.00,VWS V14.01,2013-04-04 05:35:00,
2013-04-04 01:40:00,46.9,40.4,30.26,ENE,77,0.0,7.0,78,0.00,,---,0.00,VWS V14.01,2013-04-04 05:40:00,
2013-04-04 01:45:00,47.1,40.6,30.26,ENE,76,3.0,5.0,78,0.00,,---,0.00,VWS V14.01,2013-04-04 05:45:00,
2013-04-04 01:50:00,47.3,40.8,30.26,ENE,72,3.0,6.0,78,0.00,,---,0.00,VWS V14.01,2013-04-04 05:50:00,
2013-04-04 01:55:00,47.6,41.4,30.25,East,90,3.0,6.0,79,0.00,,---,0.00,VWS V14.01,2013-04-04 05:55:00,
2013-04-04 02:00:00,48.0,41.5,30.25,East,84,7.0,7.0,78,0.00,,---,0.00,VWS V14.01,2013-04-04 06:00:00,
2013-04-04 02:05:00,48.3,41.8,30.25,ENE,77,5.0,8.0,78,0.00,,---,0.00,VWS V14.01,2013-04-04 06:05:00,
2013-04-04 02:10:00,48.6,42.1,30.25,East,85,3.0,8.0,78,0.00,,---,0.00,VWS V14.01,2013-04-04 06:10:00,
2013-04-04 02:15:00,48.7,42.2,30.25,East,79,3.0,8.0,78,0.00,,---,0.00,VWS V14.01,2013-04-04 06:15:00,
2013-04-04 02:20:00,48.8,42.3,30.25,East,96,8.0,8.0,78,0.00,,---,0.00,VWS V14.01,2013-04-04 06:20:00,
2013-04-04 02:25:00,48.7,42.2,30.24,East,82,8.0,8.0,78,0.00,,---,0.00,VWS V14.01,2013-04-04 06:25:00,
2013-04-04 02:30:00,48.8,42.3,30.24,ENE,71,4.0,8.0,78,0.00,,---,0.00,VWS V14.01,2013-04-04 06:30:00,
2013-04-04 02:35:00,48.8,42.3,30.24,East,86,6.0,7.0,78,0.00,,---,0.00,VWS V14.01,2013-04-04 06:35:00,
2013-04-04 02:40:00,48.8,42.3,30.24,ENE,76,8.0,8.0,78,0.00,,---,0.00,VWS V14.01,2013-04-04 06:40:00,
2013-04-04 02:45:00,48.9,42.3,30.24,East,98,7.0,9.0,78,0.00,,---,0.00,VWS V14.01,2013-04-04 06:45:00,
2013-04-04 02:50:00,48.9,42.3,30.24,ENE,74,7.0,7.0,78,0.00,,---,0.00,VWS V14.01,2013-04-04 06:50:00,
2013-04-04 02:55:00,48.9,42.3,30.23,ENE,78,5.0,7.0,78,0.00,,---,0.00,VWS V14.01,2013-04-04 06:55:00,
2013-04-04 03:00:00,49.0,42.5,30.23,ENE,78,5.0,7.0,78,0.00,,---,0.00,VWS V14.01,2013-04-04 07:00:00,
2013-04-04 03:05:00,49.0,42.5,30.23,ENE,63,2.0,5.0,78,0.00,,---,0.00,VWS V14.01,2013-04-04 07:05:00,
2013-04-04 03:10:00,48.5,42.0,30.23,NE,51,3.0,7.0,78,0.00,,---,0.00,VWS V14.01,2013-04-04 07:10:00,
2013-04-04 03:15:00,47.9,41.4,30.23,NE,51,4.0,6.0,78,0.00,,---,0.00,VWS V14.01,2013-04-04 07:15:00,
2013-04-04 03:20:00,47.5,41.3,30.23,NE,52,3.0,6.0,79,0.00,,---,0.00,VWS V14.01,2013-04-04 07:20:00,
2013-04-04 03:25:00,47.3,41.1,30.23,ENE,58,5.0,5.0,79,0.00,,---,0.00,VWS V14.01,2013-04-04 07:25:00,
2013-04-04 03:30:00,47.2,41.0,30.23,ENE,75,7.0,7.0,79,0.00,,---,0.00,VWS V14.01,2013-04-04 07:30:00,
2013-04-04 03:35:00,47.2,41.0,30.23,NE,49,7.0,10.0,79,0.00,,---,0.00,VWS V14.01,2013-04-04 07:35:00,
2013-04-04 03:40:00,47.1,40.9,30.23,ENE,65,5.0,10.0,79,0.00,,---,0.00,VWS V14.01,2013-04-04 07:40:00,
2013-04-04 03:45:00,47.0,40.8,30.23,ENE,69,4.0,5.0,79,0.00,,---,0.00,VWS V14.01,2013-04-04 07:45:00,
2013-04-04 03:50:00,47.1,41.3,30.23,ENE,63,9.0,9.0,80,0.00,,---,0.00,VWS V14.01,2013-04-04 07:50:00,
2013-04-04 03:55:00,47.2,41.4,30.23,ENE,78,8.0,10.0,80,0.00,,---,0.00,VWS V14.01,2013-04-04 07:55:00,
2013-04-04 04:00:00,47.3,41.5,30.23,ENE,70,4.0,8.0,80,0.00,,---,0.00,VWS V14.01,2013-04-04 08:00:00,
2013-04-04 04:05:00,47.5,42.0,30.23,ENE,57,7.0,8.0,81,0.00,,---,0.00,VWS V14.01,2013-04-04 08:05:00,
2013-04-04 04:10:00,47.7,42.2,30.23,NE,51,7.0,9.0,81,0.00,,---,0.00,VWS V14.01,2013-04-04 08:10:00,
2013-04-04 04:15:00,47.7,41.8,30.23,ENE,77,11.0,13.0,80,0.00,,---,0.00,VWS V14.01,2013-04-04 08:15:00,
2013-04-04 04:20:00,47.6,41.8,30.24,East,82,10.0,16.0,80,0.00,,---,0.00,VWS V14.01,2013-04-04 08:20:00,
2013-04-04 04:25:00,47.6,41.8,30.24,East,81,8.0,11.0,80,0.00,,---,0.00,VWS V14.01,2013-04-04 08:25:00,
2013-04-04 04:30:00,47.8,42.3,30.24,ENE,76,8.0,14.0,81,0.00,,---,0.00,VWS V14.01,2013-04-04 08:30:00,
2013-04-04 04:35:00,48.1,42.2,30.24,East,81,14.0,17.0,80,0.00,,---,0.00,VWS V14.01,2013-04-04 08:35:00,
2013-04-04 04:40:00,48.4,41.9,30.25,East,80,13.0,18.0,78,0.00,,---,0.00,VWS V14.01,2013-04-04 08:40:00,
2013-04-04 04:45:00,48.5,41.6,30.25,East,80,13.0,14.0,77,0.00,,---,0.00,VWS V14.01,2013-04-04 08:45:00,
2013-04-04 04:50:00,48.6,41.7,30.25,ENE,72,11.0,18.0,77,0.00,,---,0.00,VWS V14.01,2013-04-04 08:50:00,
2013-04-04 04:55:00,48.5,41.6,30.26,ENE,69,13.0,18.0,77,0.00,,---,0.00,VWS V14.01,2013-04-04 08:55:00,
2013-04-04 05:00:00,48.3,41.4,30.26,ENE,66,8.0,15.0,77,0.00,,---,0.00,VWS V14.01,2013-04-04 09:00:00,
2013-04-04 05:05:00,47.9,41.0,30.26,East,87,11.0,19.0,77,0.00,,---,0.00,VWS V14.01,2013-04-04 09:05:00,
2013-04-04 05:10:00,47.8,41.3,30.26,East,89,13.0,17.0,78,0.00,,---,0.00,VWS V14.01,2013-04-04 09:10:00,
2013-04-04 05:15:00,47.7,40.8,30.26,East,80,14.0,17.0,77,0.00,,---,0.00,VWS V14.01,2013-04-04 09:15:00,
2013-04-04 05:20:00,47.6,40.8,30.26,East,82,14.0,16.0,77,0.00,,---,0.00,VWS V14.01,2013-04-04 09:20:00,
2013-04-04 05:25:00,47.6,40.4,30.26,East,88,15.0,17.0,76,0.00,,---,0.00,VWS V14.01,2013-04-04 09:25:00,
2013-04-04 05:30:00,47.5,40.3,30.26,ENE,78,8.0,16.0,76,0.00,,---,0.00,VWS V14.01,2013-04-04 09:30:00,
2013-04-04 05:35:00,47.3,39.8,30.26,East,81,13.0,19.0,75,0.00,,---,0.00,VWS V14.01,2013-04-04 09:35:00,
2013-04-04 05:40:00,47.3,39.8,30.27,ENE,67,14.0,17.0,75,0.00,,---,0.00,VWS V14.01,2013-04-04 09:40:00,
2013-04-04 05:45:00,47.3,39.8,30.27,ENE,76,12.0,17.0,75,0.00,,---,0.00,VWS V14.01,2013-04-04 09:45:00,
2013-04-04 05:50:00,47.2,39.7,30.27,ENE,77,9.0,15.0,75,0.00,,---,0.00,VWS V14.01,2013-04-04 09:50:00,
2013-04-04 05:55:00,47.2,39.3,30.27,ENE,70,9.0,20.0,74,0.00,,---,0.00,VWS V14.01,2013-04-04 09:55:00,
2013-04-04 06:00:00,47.1,38.9,30.27,East,88,15.0,15.0,73,0.00,,---,0.00,VWS V14.01,2013-04-04 10:00:00,
2013-04-04 06:05:00,47.0,38.5,30.27,East,85,19.0,19.0,72,0.00,,---,0.00,VWS V14.01,2013-04-04 10:05:00,
2013-04-04 06:10:00,47.0,37.7,30.28,East,82,14.0,17.0,70,0.00,,---,0.00,VWS V14.01,2013-04-04 10:10:00,
2013-04-04 06:15:00,47.0,37.4,30.28,ENE,78,13.0,18.0,69,0.00,,---,0.00,VWS V14.01,2013-04-04 10:15:00,
2013-04-04 06:20:00,47.0,37.0,30.27,East,86,15.0,21.0,68,0.00,,---,0.00,VWS V14.01,2013-04-04 10:20:00,
2013-04-04 06:25:00,47.0,37.0,30.28,ENE,69,12.0,19.0,68,0.00,,---,0.00,VWS V14.01,2013-04-04 10:25:00,
2013-04-04 06:30:00,46.9,36.5,30.28,East,84,14.0,18.0,67,0.00,,---,0.00,VWS V14.01,2013-04-04 10:30:00,
2013-04-04 06:35:00,46.9,36.5,30.28,ENE,76,9.0,21.0,67,0.00,,---,0.00,VWS V14.01,2013-04-04 10:35:00,
2013-04-04 06:40:00,46.8,36.4,30.27,East,93,11.0,19.0,67,0.00,,---,0.00,VWS V14.01,2013-04-04 10:40:00,
2013-04-04 06:45:00,46.7,36.0,30.28,East,82,18.0,22.0,66,0.00,,---,0.00,VWS V14.01,2013-04-04 10:45:00,
2013-04-04 06:50:00,46.7,36.3,30.28,East,80,13.0,17.0,67,0.00,,---,0.00,VWS V14.01,2013-04-04 10:50:00,
2013-04-04 06:55:00,46.7,36.3,30.28,East,80,14.0,15.0,67,0.00,,---,0.00,VWS V14.01,2013-04-04 10:55:00,
2013-04-04 07:00:00,46.7,36.7,30.28,ENE,75,14.0,19.0,68,0.00,,---,0.00,VWS V14.01,2013-04-04 11:00:00,
2013-04-04 07:05:00,46.8,36.8,30.28,East,80,11.0,21.0,68,0.00,,---,0.00,VWS V14.01,2013-04-04 11:05:00,
2013-04-04 07:10:00,46.7,36.7,30.28,NE,50,14.0,20.0,68,0.00,,---,0.00,VWS V14.01,2013-04-04 11:10:00,
2013-04-04 07:15:00,46.7,36.7,30.27,ENE,69,16.0,19.0,68,0.00,,---,0.00,VWS V14.01,2013-04-04 11:15:00,
2013-04-04 07:20:00,46.7,36.3,30.27,ENE,74,15.0,17.0,67,0.00,,---,0.00,VWS V14.01,2013-04-04 11:20:00,
2013-04-04 07:25:00,46.9,36.9,30.28,ENE,62,10.0,21.0,68,0.00,,---,0.00,VWS V14.01,2013-04-04 11:25:00,
2013-04-04 07:30:00,46.9,36.5,30.28,East,80,18.0,21.0,67,0.00,,---,0.00,VWS V14.01,2013-04-04 11:30:00,
2013-04-04 07:35:00,47.0,37.0,30.28,ENE,73,15.0,18.0,68,0.00,,---,0.00,VWS V14.01,2013-04-04 11:35:00,
2013-04-04 07:40:00,47.0,36.6,30.28,East,89,16.0,19.0,67,0.00,,---,0.00,VWS V14.01,2013-04-04 11:40:00,
2013-04-04 07:45:00,47.0,36.6,30.28,ENE,71,13.0,20.0,67,0.00,,---,0.00,VWS V14.01,2013-04-04 11:45:00,
2013-04-04 07:50:00,47.1,36.7,30.28,ENE,75,10.0,19.0,67,0.00,,---,0.00,VWS V14.01,2013-04-04 11:50:00,
2013-04-04 07:55:00,47.2,36.8,30.28,ENE,76,12.0,23.0,67,0.00,,---,0.00,VWS V14.01,2013-04-04 11:55:00,
2013-04-04 08:00:00,47.2,36.8,30.29,ENE,78,11.0,19.0,67,0.00,,---,0.00,VWS V14.01,2013-04-04 12:00:00,
2013-04-04 08:05:00,47.3,37.3,30.29,ENE,65,15.0,21.0,68,0.00,,---,0.00,VWS V14.01,2013-04-04 12:05:00,
2013-04-04 08:10:00,47.5,37.5,30.28,ENE,75,18.0,21.0,68,0.00,,---,0.00,VWS V14.01,2013-04-04 12:10:00,
2013-04-04 08:15:00,47.5,37.5,30.28,East,80,17.0,21.0,68,0.00,,---,0.00,VWS V14.01,2013-04-04 12:15:00,
2013-04-04 08:20:00,47.6,37.6,30.28,ENE,74,11.0,21.0,68,0.00,,---,0.00,VWS V14.01,2013-04-04 12:20:00,
2013-04-04 08:25:00,47.6,37.6,30.28,East,80,14.0,18.0,68,0.00,,---,0.00,VWS V14.01,2013-04-04 12:25:00,
2013-04-04 08:30:00,47.8,37.8,30.28,East,92,10.0,20.0,68,0.00,,---,0.00,VWS V14.01,2013-04-04 12:30:00,
2013-04-04 08:35:00,47.9,37.9,30.28,ENE,78,11.0,21.0,68,0.00,,---,0.00,VWS V14.01,2013-04-04 12:35:00,
2013-04-04 08:40:00,48.0,38.0,30.28,East,84,15.0,23.0,68,0.00,,---,0.00,VWS V14.01,2013-04-04 12:40:00,
2013-04-04 08:45:00,48.1,38.0,30.28,East,80,15.0,22.0,68,0.00,,---,0.00,VWS V14.01,2013-04-04 12:45:00,
2013-04-04 08:50:00,48.3,38.6,30.28,ENE,78,12.0,19.0,69,0.00,,---,0.00,VWS V14.01,2013-04-04 12:50:00,
2013-04-04 08:55:00,48.4,38.7,30.28,East,82,13.0,19.0,69,0.00,,---,0.00,VWS V14.01,2013-04-04 12:55:00,
2013-04-04 09:00:00,48.5,38.8,30.28,East,90,16.0,18.0,69,0.00,,---,0.00,VWS V14.01,2013-04-04 13:00:00,
2013-04-04 09:05:00,48.7,39.0,30.28,ENE,78,13.0,21.0,69,0.00,,---,0.00,VWS V14.01,2013-04-04 13:05:00,
2013-04-04 09:10:00,48.9,39.2,30.28,ENE,75,11.0,20.0,69,0.00,,---,0.00,VWS V14.01,2013-04-04 13:10:00,
2013-04-04 09:15:00,49.1,39.4,30.28,East,88,14.0,21.0,69,0.00,,---,0.00,VWS V14.01,2013-04-04 13:15:00,
2013-04-04 09:20:00,49.3,39.6,30.28,ENE,78,12.0,19.0,69,0.00,,---,0.00,VWS V14.01,2013-04-04 13:20:00,
2013-04-04 09:25:00,49.5,39.4,30.27,ENE,70,12.0,17.0,68,0.00,,---,0.00,VWS V14.01,2013-04-04 13:25:00,
2013-04-04 09:30:00,49.8,39.7,30.27,ENE,74,13.0,18.0,68,0.00,,---,0.00,VWS V14.01,2013-04-04 13:30:00,
2013-04-04 09:35:00,49.9,39.8,30.27,ENE,58,11.0,22.0,68,0.00,,---,0.00,VWS V14.01,2013-04-04 13:35:00,
2013-04-04 09:40:00,50.0,39.5,30.27,East,88,19.0,24.0,67,0.00,,---,0.00,VWS V14.01,2013-04-04 13:40:00,
2013-04-04 09:45:00,50.1,39.6,30.26,East,86,16.0,25.0,67,0.00,,---,0.00,VWS V14.01,2013-04-04 13:45:00,
2013-04-04 09:50:00,50.3,39.8,30.26,ENE,69,18.0,21.0,67,0.00,,---,0.00,VWS V14.01,2013-04-04 13:50:00,
2013-04-04 09:55:00,50.5,40.0,30.26,East,81,14.0,23.0,67,0.00,,---,0.00,VWS V14.01,2013-04-04 13:55:00,
2013-04-04 10:00:00,50.6,40.1,30.26,ENE,74,11.0,24.0,67,0.00,,---,0.00,VWS V14.01,2013-04-04 14:00:00,
2013-04-04 10:05:00,50.9,40.3,30.26,East,82,20.0,20.0,67,0.00,,---,0.00,VWS V14.01,2013-04-04 14:05:00,
2013-04-04 10:10:00,51.0,40.4,30.26,East,90,14.0,23.0,67,0.00,,---,0.00,VWS V14.01,2013-04-04 14:10:00,
2013-04-04 10:16:00,51.2,41.0,30.26,ENE,69,15.0,24.0,68,0.00,,---,0.00,VWS V14.01,2013-04-04 14:16:00,
2013-04-04 10:21:00,51.5,40.9,30.26,ENE,67,15.0,22.0,67,0.00,,---,0.00,VWS V14.01,2013-04-04 14:21:00,
2013-04-04 10:26:00,51.3,40.0,30.26,ENE,74,22.0,24.0,65,0.00,,---,0.00,VWS V14.01,2013-04-04 14:26:00,
2013-04-04 10:31:00,51.5,40.9,30.25,East,90,24.0,24.0,67,0.00,,---,0.00,VWS V14.01,2013-04-04 14:31:00,
2013-04-04 10:36:00,51.7,40.7,30.25,East,80,14.0,26.0,66,0.00,,---,0.00,VWS V14.01,2013-04-04 14:36:00,
2013-04-04 10:41:00,51.9,40.5,30.25,East,92,18.0,23.0,65,0.00,,---,0.00,VWS V14.01,2013-04-04 14:41:00,
2013-04-04 10:46:00,51.9,40.9,30.25,East,95,17.0,24.0,66,0.00,,---,0.00,VWS V14.01,2013-04-04 14:46:00,
2013-04-04 10:51:00,52.1,41.1,30.25,East,79,14.0,24.0,66,0.00,,---,0.00,VWS V14.01,2013-04-04 14:51:00,
2013-04-04 10:56:00,52.1,41.1,30.25,ENE,71,16.0,23.0,66,0.00,,---,0.00,VWS V14.01,2013-04-04 14:56:00,
2013-04-04 11:01:00,52.2,40.8,30.26,ENE,77,16.0,19.0,65,0.00,,---,0.00,VWS V14.01,2013-04-04 15:01:00,
2013-04-04 11:06:00,52.3,40.9,30.26,East,98,17.0,18.0,65,0.00,,---,0.00,VWS V14.01,2013-04-04 15:06:00,
2013-04-04 11:11:00,52.4,41.0,30.26,ENE,78,14.0,17.0,65,0.00,,---,0.00,VWS V14.01,2013-04-04 15:11:00,
2013-04-04 11:16:00,52.3,40.9,30.26,ENE,76,17.0,21.0,65,0.00,,---,0.00,VWS V14.01,2013-04-04 15:16:00,
2013-04-04 11:22:00,52.1,40.7,30.26,East,83,17.0,25.0,65,0.00,,---,0.00,VWS V14.01,2013-04-04 15:22:00,
2013-04-04 11:27:00,52.1,41.5,30.25,East,96,11.0,23.0,67,0.00,,---,0.00,VWS V14.01,2013-04-04 15:27:00,
2013-04-04 11:32:00,52.1,41.5,30.25,ENE,65,16.0,19.0,67,0.00,,---,0.00,VWS V14.01,2013-04-04 15:32:00,
2013-04-04 11:37:00,52.1,41.5,30.25,East,82,13.0,22.0,67,0.00,,---,0.00,VWS V14.01,2013-04-04 15:37:00,
2013-04-04 11:42:00,52.2,41.6,30.25,ENE,65,13.0,20.0,67,0.00,,---,0.00,VWS V14.01,2013-04-04 15:42:00,
2013-04-04 11:47:00,52.4,41.4,30.24,East,90,15.0,22.0,66,0.00,,---,0.00,VWS V14.01,2013-04-04 15:47:00,
2013-04-04 11:52:00,52.6,41.6,30.24,ENE,77,14.0,21.0,66,0.00,,---,0.00,VWS V14.01,2013-04-04 15:52:00,
2013-04-04 11:57:00,52.6,41.6,30.24,ENE,67,11.0,21.0,66,0.00,,---,0.00,VWS V14.01,2013-04-04 15:57:00,
2013-04-04 12:02:00,52.5,41.5,30.23,East,89,13.0,17.0,66,0.00,,---,0.00,VWS V14.01,2013-04-04 16:02:00,
2013-04-04 12:07:00,52.5,41.9,30.23,East,80,16.0,22.0,67,0.00,,---,0.00,VWS V14.01,2013-04-04 16:07:00,
2013-04-04 12:12:00,52.3,42.1,30.22,ENE,75,12.0,18.0,68,0.00,,---,0.00,VWS V14.01,2013-04-04 16:12:00,
2013-04-04 12:17:00,52.2,42.3,30.22,East,90,15.0,20.0,69,0.00,,---,0.00,VWS V14.01,2013-04-04 16:17:00,
2013-04-04 12:22:00,52.1,42.6,30.22,East,85,11.0,21.0,70,0.00,,---,0.00,VWS V14.01,2013-04-04 16:22:00,
2013-04-04 12:27:00,52.0,42.9,30.22,East,88,16.0,19.0,71,0.00,,---,0.00,VWS V14.01,2013-04-04 16:27:00,
2013-04-04 12:32:00,51.9,43.2,30.21,ENE,69,16.0,18.0,72,0.00,,---,0.00,VWS V14.01,2013-04-04 16:32:00,
2013-04-04 12:37:00,52.0,43.3,30.20,East,85,13.0,21.0,72,0.00,,---,0.00,VWS V14.01,2013-04-04 16:37:00,
2013-04-04 12:42:00,52.0,42.9,30.20,East,90,16.0,22.0,71,0.00,,---,0.00,VWS V14.01,2013-04-04 16:42:00,
2013-04-04 12:47:00,52.2,43.1,30.20,East,88,18.0,19.0,71,0.00,,---,0.00,VWS V14.01,2013-04-04 16:47:00,
2013-04-04 12:52:00,52.1,43.0,30.20,East,80,20.0,22.0,71,0.00,,---,0.00,VWS V14.01,2013-04-04 16:52:00,
2013-04-04 12:57:00,52.0,42.9,30.20,ENE,72,9.0,23.0,71,0.00,,---,0.00,VWS V14.01,2013-04-04 16:57:00,
2013-04-04 13:02:00,51.9,43.5,30.20,East,94,15.0,18.0,73,0.00,,---,0.00,VWS V14.01,2013-04-04 17:02:00,
2013-04-04 13:07:00,51.8,43.1,30.19,East,93,17.0,18.0,72,0.00,,---,0.00,VWS V14.01,2013-04-04 17:07:00,
2013-04-04 13:12:00,51.8,43.4,30.19,East,87,13.0,19.0,73,0.00,,---,0.00,VWS V14.01,2013-04-04 17:12:00,
2013-04-04 13:17:00,51.8,43.4,30.18,ENE,69,11.0,22.0,73,0.00,,---,0.00,VWS V14.01,2013-04-04 17:17:00,
2013-04-04 13:22:00,51.9,43.5,30.18,ENE,78,15.0,22.0,73,0.01,,---,0.01,VWS V14.01,2013-04-04 17:22:00,
2013-04-04 13:27:00,51.8,44.5,30.18,East,96,13.0,18.0,76,0.01,,---,0.01,VWS V14.01,2013-04-04 17:27:00,
2013-04-04 13:32:00,51.5,44.2,30.18,East,80,16.0,22.0,76,0.01,,---,0.01,VWS V14.01,2013-04-04 17:32:00,
2013-04-04 13:37:00,51.6,44.3,30.17,East,92,21.0,24.0,76,0.01,,---,0.01,VWS V14.01,2013-04-04 17:37:00,
2013-04-04 13:42:00,51.7,44.0,30.17,East,88,15.0,22.0,75,0.01,,---,0.01,VWS V14.01,2013-04-04 17:42:00,
2013-04-04 13:47:00,51.9,43.9,30.17,East,86,21.0,24.0,74,0.01,,---,0.01,VWS V14.01,2013-04-04 17:47:00,
2013-04-04 13:52:00,52.1,44.1,30.16,ENE,68,16.0,24.0,74,0.01,,---,0.01,VWS V14.01,2013-04-04 17:52:00,
2013-04-04 13:57:00,52.3,44.3,30.16,ENE,67,18.0,24.0,74,0.01,,---,0.01,VWS V14.01,2013-04-04 17:57:00,
2013-04-04 14:02:00,52.3,44.6,30.16,ENE,69,17.0,22.0,75,0.01,,---,0.01,VWS V14.01,2013-04-04 18:02:00,
2013-04-04 14:07:00,52.0,44.0,30.16,East,88,21.0,25.0,74,0.01,,---,0.01,VWS V14.01,2013-04-04 18:07:00,
2013-04-04 14:12:00,51.9,44.6,30.16,East,81,9.0,21.0,76,0.01,,---,0.01,VWS V14.01,2013-04-04 18:12:00,
2013-04-04 14:17:00,51.6,44.3,30.16,ENE,63,10.0,14.0,76,0.01,,---,0.01,VWS V14.01,2013-04-04 18:17:00,
2013-04-04 14:22:00,51.4,44.4,30.15,East,82,14.0,15.0,77,0.00,,---,0.01,VWS V14.01,2013-04-04 18:22:00,
2013-04-04 14:27:00,51.4,44.4,30.15,East,83,8.0,20.0,77,0.00,,---,0.01,VWS V14.01,2013-04-04 18:27:00,
2013-04-04 14:32:00,51.4,44.4,30.14,ENE,67,14.0,16.0,77,0.00,,---,0.01,VWS V14.01,2013-04-04 18:32:00,
2013-04-04 14:37:00,51.3,44.3,30.15,ENE,78,15.0,17.0,77,0.00,,---,0.01,VWS V14.01,2013-04-04 18:37:00,
2013-04-04 14:42:00,51.2,44.2,30.16,ENE,78,13.0,15.0,77,0.00,,---,0.01,VWS V14.01,2013-04-04 18:42:00,
2013-04-04 14:47:00,51.1,44.5,30.15,ENE,67,11.0,11.0,78,0.00,,---,0.01,VWS V14.01,2013-04-04 18:47:00,
2013-04-04 14:52:00,51.0,44.4,30.15,ENE,71,9.0,10.0,78,0.00,,---,0.01,VWS V14.01,2013-04-04 18:52:00,
2013-04-04 14:57:00,51.0,44.4,30.14,East,89,10.0,10.0,78,0.00,,---,0.01,VWS V14.01,2013-04-04 18:57:00,
2013-04-04 15:02:00,50.7,44.4,30.14,ENE,65,13.0,13.0,79,0.00,,---,0.01,VWS V14.01,2013-04-04 19:02:00,
2013-04-04 15:07:00,50.5,44.6,30.12,East,82,16.0,16.0,80,0.00,,---,0.01,VWS V14.01,2013-04-04 19:07:00,
2013-04-04 15:12:00,50.5,44.6,30.11,ENE,66,13.0,14.0,80,0.00,,---,0.01,VWS V14.01,2013-04-04 19:12:00,
2013-04-04 15:17:00,50.7,44.8,30.12,ENE,73,14.0,14.0,80,0.00,,---,0.01,VWS V14.01,2013-04-04 19:17:00,
2013-04-04 15:22:00,50.8,44.9,30.11,East,90,15.0,15.0,80,0.00,,---,0.01,VWS V14.01,2013-04-04 19:22:00,
2013-04-04 15:27:00,50.8,44.9,30.10,ENE,65,13.0,15.0,80,0.00,,---,0.01,VWS V14.01,2013-04-04 19:27:00,
2013-04-04 15:32:00,50.8,44.9,30.11,ESE,111,12.0,12.0,80,0.00,,---,0.01,VWS V14.01,2013-04-04 19:32:00,
2013-04-04 15:37:00,50.7,44.8,30.11,East,79,15.0,16.0,80,0.00,,---,0.01,VWS V14.01,2013-04-04 19:37:00,
2013-04-04 15:42:00,50.8,45.2,30.10,East,94,16.0,18.0,81,0.00,,---,0.01,VWS V14.01,2013-04-04 19:42:00,
2013-04-04 15:48:00,50.9,44.6,30.09,ENE,74,13.0,14.0,79,0.00,,---,0.01,VWS V14.01,2013-04-04 19:48:00,
2013-04-04 15:53:00,51.1,44.8,30.09,ENE,77,12.0,14.0,79,0.00,,---,0.01,VWS V14.01,2013-04-04 19:53:00,
2013-04-04 15:58:00,51.0,44.7,30.08,East,91,15.0,17.0,79,0.00,,---,0.01,VWS V14.01,2013-04-04 19:58:00,
2013-04-04 16:03:00,51.2,44.9,30.08,East,91,17.0,19.0,79,0.00,,---,0.01,VWS V14.01,2013-04-04 20:03:00,
2013-04-04 16:08:00,51.3,44.7,30.09,ENE,63,12.0,13.0,78,0.00,,---,0.01,VWS V14.01,2013-04-04 20:08:00,
2013-04-04 16:13:00,51.3,44.7,30.08,East,94,14.0,16.0,78,0.00,,---,0.01,VWS V14.01,2013-04-04 20:13:00,
2013-04-04 16:18:00,51.3,44.3,30.08,East,86,11.0,14.0,77,0.00,,---,0.01,VWS V14.01,2013-04-04 20:18:00,
2013-04-04 16:23:00,51.3,44.3,30.08,East,84,15.0,19.0,77,0.00,,---,0.01,VWS V14.01,2013-04-04 20:23:00,
2013-04-04 16:28:00,51.4,44.4,30.08,East,91,17.0,18.0,77,0.00,,---,0.01,VWS V14.01,2013-04-04 20:28:00,
2013-04-04 16:33:00,51.4,44.4,30.07,East,86,17.0,18.0,77,0.00,,---,0.01,VWS V14.01,2013-04-04 20:33:00,
2013-04-04 16:38:00,51.0,44.7,30.07,East,90,11.0,22.0,79,0.01,,---,0.02,VWS V14.01,2013-04-04 20:38:00,
2013-04-04 16:43:00,50.7,44.8,30.06,East,82,13.0,16.0,80,0.01,,---,0.02,VWS V14.01,2013-04-04 20:43:00,
2013-04-04 16:48:00,50.6,45.0,30.07,ENE,74,14.0,17.0,81,0.01,,---,0.02,VWS V14.01,2013-04-04 20:48:00,
2013-04-04 16:53:00,50.6,45.0,30.07,East,88,14.0,18.0,81,0.01,,---,0.02,VWS V14.01,2013-04-04 20:53:00,
2013-04-04 16:58:00,50.7,45.1,30.07,East,82,13.0,14.0,81,0.01,,---,0.02,VWS V14.01,2013-04-04 20:58:00,
2013-04-04 17:03:00,50.8,45.2,30.07,ENE,67,12.0,14.0,81,0.01,,---,0.02,VWS V14.01,2013-04-04 21:03:00,
2013-04-04 17:08:00,50.6,45.0,30.04,East,79,14.0,18.0,81,0.01,,---,0.02,VWS V14.01,2013-04-04 21:08:00,
2013-04-04 17:13:00,50.5,45.2,30.03,ENE,73,18.0,18.0,82,0.01,,---,0.02,VWS V14.01,2013-04-04 21:13:00,
2013-04-04 17:18:00,50.3,45.0,30.04,ENE,72,11.0,21.0,82,0.02,,---,0.03,VWS V14.01,2013-04-04 21:18:00,
2013-04-04 17:23:00,50.1,45.2,30.04,East,84,15.0,18.0,83,0.02,,---,0.03,VWS V14.01,2013-04-04 21:23:00,
2013-04-04 17:28:00,50.0,45.4,30.04,ENE,77,14.0,17.0,84,0.02,,---,0.03,VWS V14.01,2013-04-04 21:28:00,
2013-04-04 17:33:00,49.9,45.3,30.04,NE,41,11.0,16.0,84,0.02,,---,0.03,VWS V14.01,2013-04-04 21:33:00,
2013-04-04 17:38:00,49.9,45.6,30.03,East,94,16.0,19.0,85,0.01,,---,0.03,VWS V14.01,2013-04-04 21:38:00,
2013-04-04 17:43:00,49.9,45.6,30.03,East,86,19.0,19.0,85,0.01,,---,0.03,VWS V14.01,2013-04-04 21:43:00,
2013-04-04 17:48:00,49.7,45.4,30.01,East,86,21.0,21.0,85,0.01,,---,0.03,VWS V14.01,2013-04-04 21:48:00,
2013-04-04 17:53:00,49.8,45.8,30.02,East,90,16.0,18.0,86,0.01,,---,0.03,VWS V14.01,2013-04-04 21:53:00,
2013-04-04 17:58:00,50.0,46.3,30.01,East,82,18.0,18.0,87,0.01,,---,0.03,VWS V14.01,2013-04-04 21:58:00,
2013-04-04 18:03:00,50.0,46.3,30.01,East,90,17.0,24.0,87,0.01,,---,0.03,VWS V14.01,2013-04-04 22:03:00,
2013-04-04 18:08:00,49.9,46.5,30.01,ENE,65,15.0,19.0,88,0.01,,---,0.03,VWS V14.01,2013-04-04 22:08:00,
2013-04-04 18:13:00,49.7,46.3,30.01,East,82,14.0,22.0,88,0.01,,---,0.03,VWS V14.01,2013-04-04 22:13:00,
2013-04-04 18:18:00,49.5,46.4,30.00,ENE,76,17.0,18.0,89,0.01,,---,0.04,VWS V14.01,2013-04-04 22:18:00,
2013-04-04 18:23:00,49.4,46.3,30.01,ENE,57,15.0,15.0,89,0.01,,---,0.04,VWS V14.01,2013-04-04 22:23:00,
2013-04-04 18:28:00,49.2,46.4,30.00,NE,55,21.0,21.0,90,0.01,,---,0.04,VWS V14.01,2013-04-04 22:28:00,
2013-04-04 18:33:00,49.2,46.4,30.00,NE,56,17.0,19.0,90,0.01,,---,0.04,VWS V14.01,2013-04-04 22:33:00,
2013-04-04 18:38:00,49.2,46.7,29.99,ENE,68,15.0,15.0,91,0.02,,---,0.05,VWS V14.01,2013-04-04 22:38:00,
2013-04-04 18:43:00,49.1,46.6,29.99,ENE,69,15.0,15.0,91,0.03,,---,0.06,VWS V14.01,2013-04-04 22:43:00,
2013-04-04 18:48:00,49.2,47.0,29.99,ENE,74,15.0,15.0,92,0.04,,---,0.07,VWS V14.01,2013-04-04 22:48:00,
2013-04-04 18:53:00,49.3,47.1,29.99,ENE,57,12.0,17.0,92,0.05,,---,0.08,VWS V14.01,2013-04-04 22:53:00,
2013-04-04 18:58:00,49.3,47.1,29.99,ENE,61,9.0,16.0,92,0.06,,---,0.09,VWS V14.01,2013-04-04 22:58:00,
2013-04-04 19:03:00,49.4,47.5,29.98,NE,42,16.0,16.0,93,0.07,,---,0.10,VWS V14.01,2013-04-04 23:03:00,
2013-04-04 19:08:00,49.5,47.6,29.98,NE,51,11.0,13.0,93,0.09,,---,0.12,VWS V14.01,2013-04-04 23:08:00,
2013-04-04 19:13:00,49.8,47.9,29.98,ENE,65,12.0,17.0,93,0.12,,---,0.15,VWS V14.01,2013-04-04 23:13:00,
2013-04-04 19:18:00,49.9,48.2,29.97,ENE,65,16.0,18.0,94,0.13,,---,0.17,VWS V14.01,2013-04-04 23:18:00,
2013-04-04 19:23:00,50.0,48.3,29.97,ENE,58,14.0,17.0,94,0.14,,---,0.18,VWS V14.01,2013-04-04 23:23:00,
2013-04-04 19:28:00,50.3,48.6,29.97,NE,42,9.0,10.0,94,0.15,,---,0.19,VWS V14.01,2013-04-04 23:28:00,
2013-04-04 19:33:00,50.5,48.8,29.97,NE,38,8.0,14.0,94,0.17,,---,0.21,VWS V14.01,2013-04-04 23:33:00,
2013-04-04 19:38:00,50.8,49.1,29.97,NE,52,6.0,13.0,94,0.18,,---,0.23,VWS V14.01,2013-04-04 23:38:00,
2013-04-04 19:43:00,50.9,49.2,29.96,East,80,14.0,18.0,94,0.19,,---,0.25,VWS V14.01,2013-04-04 23:43:00,
2013-04-04 19:48:00,51.1,49.4,29.94,ENE,67,16.0,17.0,94,0.21,,---,0.28,VWS V14.01,2013-04-04 23:48:00,
2013-04-04 19:53:00,51.4,50.0,29.93,ENE,72,14.0,18.0,95,0.24,,---,0.32,VWS V14.01,2013-04-04 23:53:00,
2013-04-04 19:58:00,51.8,50.4,29.93,ENE,67,11.0,16.0,95,0.26,,---,0.35,VWS V14.01,2013-04-04 23:58:00,
2013-04-04 20:02:00,52.3,50.9,29.93,East,87,15.0,17.0,95,0.28,,---,0.38,VWS V14.01,2013-04-05 00:02:00,
2013-04-04 20:07:00,53.2,51.8,29.93,East,79,19.0,23.0,95,0.29,,---,0.40,VWS V14.01,2013-04-05 00:07:00,
2013-04-04 20:13:00,53.3,51.9,29.92,East,82,24.0,24.0,95,0.27,,---,0.42,VWS V14.01,2013-04-05 00:13:00,
2013-04-04 20:18:00,53.0,51.6,29.91,ENE,63,13.0,19.0,95,0.28,,---,0.45,VWS V14.01,2013-04-05 00:18:00,
2013-04-04 20:23:00,53.0,51.6,29.91,ENE,67,19.0,19.0,95,0.30,,---,0.48,VWS V14.01,2013-04-05 00:23:00,
2013-04-04 20:28:00,53.3,51.9,29.90,East,95,16.0,17.0,95,0.32,,---,0.51,VWS V14.01,2013-04-05 00:28:00,
2013-04-04 20:33:00,54.1,53.0,29.89,ENE,72,17.0,23.0,96,0.35,,---,0.55,VWS V14.01,2013-04-05 00:33:00,
2013-04-04 20:38:00,54.6,53.5,29.88,ENE,71,21.0,24.0,96,0.35,,---,0.58,VWS V14.01,2013-04-05 00:38:00,
2013-04-04 20:43:00,54.9,53.8,29.89,East,91,18.0,26.0,96,0.35,,---,0.60,VWS V14.01,2013-04-05 00:43:00,
2013-04-04 20:48:00,55.0,53.9,29.88,East,79,18.0,20.0,96,0.35,,---,0.63,VWS V14.01,2013-04-05 00:48:00,
2013-04-04 20:53:00,55.8,54.7,29.88,ENE,67,17.0,27.0,96,0.34,,---,0.65,VWS V14.01,2013-04-05 00:53:00,
2013-04-04 20:58:00,56.3,55.2,29.87,East,96,28.0,28.0,96,0.31,,---,0.66,VWS V14.01,2013-04-05 00:58:00,
2013-04-04 21:03:00,56.4,55.3,29.86,East,97,27.0,30.0,96,0.30,,---,0.68,VWS V14.01,2013-04-05 01:03:00,
2013-04-04 21:08:00,56.7,55.6,29.87,East,94,30.0,32.0,96,0.30,,---,0.70,VWS V14.01,2013-04-05 01:08:00,
2013-04-04 21:13:00,56.9,55.8,29.86,East,96,30.0,31.0,96,0.30,,---,0.72,VWS V14.01,2013-04-05 01:13:00,
2013-04-04 21:18:00,56.9,55.8,29.86,ESE,103,27.0,29.0,96,0.29,,---,0.74,VWS V14.01,2013-04-05 01:18:00,
2013-04-04 21:23:00,56.9,55.8,29.86,ESE,107,28.0,34.0,96,0.28,,---,0.76,VWS V14.01,2013-04-05 01:23:00,
2013-04-04 21:28:00,56.8,55.7,29.85,ESE,104,25.0,28.0,96,0.26,,---,0.77,VWS V14.01,2013-04-05 01:28:00,
2013-04-04 21:33:00,56.7,55.6,29.85,ESE,107,30.0,30.0,96,0.24,,---,0.78,VWS V14.01,2013-04-05 01:33:00,
2013-04-04 21:38:00,56.7,55.6,29.84,ESE,107,29.0,31.0,96,0.22,,---,0.79,VWS V14.01,2013-04-05 01:38:00,
2013-04-04 21:43:00,56.7,55.6,29.84,ESE,107,27.0,28.0,96,0.20,,---,0.80,VWS V14.01,2013-04-05 01:43:00,
2013-04-04 21:48:00,56.8,55.7,29.83,ESE,115,23.0,27.0,96,0.18,,---,0.81,VWS V14.01,2013-04-05 01:48:00,
2013-04-04 21:53:00,57.2,56.4,29.83,ESE,113,26.0,28.0,97,0.17,,---,0.82,VWS V14.01,2013-04-05 01:53:00,
2013-04-04 21:58:00,57.1,56.0,29.83,ESE,111,24.0,25.0,96,0.18,,---,0.84,VWS V14.01,2013-04-05 01:58:00,
2013-04-04 22:03:00,57.1,56.0,29.83,ESE,109,19.0,21.0,96,0.19,,---,0.86,VWS V14.01,2013-04-05 02:03:00,
2013-04-04 22:08:00,57.5,56.7,29.82,ESE,107,21.0,22.0,97,0.18,,---,0.88,VWS V14.01,2013-04-05 02:08:00,
2013-04-04 22:13:00,57.0,55.9,29.82,ESE,105,15.0,18.0,96,0.21,,---,0.93,VWS V14.01,2013-04-05 02:13:00,
2013-04-04 22:18:00,56.8,55.7,29.82,ESE,105,11.0,14.0,96,0.20,,---,0.94,VWS V14.01,2013-04-05 02:18:00,
2013-04-04 22:23:00,56.8,56.0,29.82,ESE,106,14.0,14.0,97,0.20,,---,0.96,VWS V14.01,2013-04-05 02:23:00,
2013-04-04 22:28:00,57.4,56.6,29.80,East,83,13.0,14.0,97,0.20,,---,0.97,VWS V14.01,2013-04-05 02:28:00,
2013-04-04 22:33:00,57.2,56.1,29.83,ESE,115,0.0,3.0,96,0.19,,---,0.97,VWS V14.01,2013-04-05 02:33:00,
2013-04-04 22:38:00,57.3,56.5,29.85,SW,227,0.0,0.0,97,0.19,,---,0.98,VWS V14.01,2013-04-05 02:38:00,
2013-04-04 22:43:00,58.0,57.2,29.83,SW,221,8.0,9.0,97,0.23,,---,1.03,VWS V14.01,2013-04-05 02:43:00,
2013-04-04 22:48:00,61.1,60.5,29.82,WSW,244,13.0,14.0,98,0.24,,---,1.05,VWS V14.01,2013-04-05 02:48:00,
2013-04-04 22:53:00,60.8,60.0,29.81,SSE,165,20.0,22.0,97,0.25,,---,1.07,VWS V14.01,2013-04-05 02:53:00,
2013-04-04 22:58:00,61.3,60.2,29.81,SSW,204,25.0,28.0,96,0.28,,---,1.12,VWS V14.01,2013-04-05 02:58:00,
2013-04-04 23:03:00,62.2,61.0,29.80,South,181,21.0,23.0,96,0.27,,---,1.13,VWS V14.01,2013-04-05 03:03:00,
2013-04-04 23:08:00,61.5,59.8,29.80,SSE,165,12.0,17.0,94,0.26,,---,1.14,VWS V14.01,2013-04-05 03:08:00,
2013-04-04 23:13:00,60.7,59.3,29.79,South,178,12.0,12.0,95,0.22,,---,1.14,VWS V14.01,2013-04-05 03:13:00,
2013-04-04 23:18:00,61.0,59.9,29.79,SSW,207,17.0,18.0,96,0.21,,---,1.15,VWS V14.01,2013-04-05 03:18:00,
2013-04-04 23:23:00,61.1,59.7,29.79,SSW,208,19.0,19.0,95,0.20,,---,1.16,VWS V14.01,2013-04-05 03:23:00,
2013-04-04 23:28:00,61.2,59.8,29.79,SSW,204,16.0,19.0,95,0.19,,---,1.16,VWS V14.01,2013-04-05 03:28:00,
2013-04-04 23:33:00,61.3,59.9,29.78,South,188,7.0,14.0,95,0.21,,---,1.18,VWS V14.01,2013-04-05 03:33:00,
2013-04-04 23:38:00,60.5,58.8,29.77,SSE,161,12.0,16.0,94,0.22,,---,1.19,VWS V14.01,2013-04-05 03:38:00,
2013-04-04 23:43:00,61.3,60.2,29.76,South,172,13.0,16.0,96,0.17,,---,1.19,VWS V14.01,2013-04-05 03:43:00,
2013-04-04 23:48:00,61.1,59.7,29.76,South,175,13.0,13.0,95,0.14,,---,1.19,VWS V14.01,2013-04-05 03:48:00,
2013-04-04 23:53:00,60.2,58.8,29.75,SSE,161,10.0,10.0,95,0.12,,---,1.19,VWS V14.01,2013-04-05 03:53:00,
2013-04-04 23:58:00,60.7,59.6,29.74,South,174,15.0,17.0,96,0.09,,---,1.20,VWS V14.01,2013-04-05 03:58:00,